createdAt,value
2023-03-22T00:02:26.827Z,5.00
2023-03-22T00:04:54.289Z,4.80
2023-03-22T00:07:21.080Z,4.60
2023-03-22T00:09:47.912Z,4.60
2023-03-22T00:12:14.646Z,4.50
2023-03-22T00:14:41.485Z,4.40
2023-03-22T00:17:08.344Z,4.30
2023-03-22T00:19:35.335Z,4.30
2023-03-22T00:22:03.605Z,4.90
2023-03-22T00:24:30.457Z,4.80
2023-03-22T00:26:58.591Z,4.80
2023-03-22T00:29:25.453Z,4.80
2023-03-22T00:31:54.324Z,4.90
2023-03-22T00:34:21.082Z,5.10
2023-03-22T00:36:48.434Z,5.10
2023-03-22T00:39:15.735Z,6.30
2023-03-22T00:41:42.684Z,5.40
2023-03-22T00:44:09.463Z,5.90
2023-03-22T00:46:36.488Z,6.30
2023-03-22T00:49:03.226Z,6.50
2023-03-22T00:51:33.315Z,6.40
2023-03-22T00:54:00.319Z,6.60
2023-03-22T00:56:28.874Z,6.50
2023-03-22T00:58:56.244Z,6.40
2023-03-22T01:01:23.153Z,6.30
2023-03-22T01:03:50.762Z,6.30
2023-03-22T01:06:18.189Z,6.40
2023-03-22T01:08:45.036Z,6.50
2023-03-22T01:11:12.628Z,6.60
2023-03-22T01:13:41.841Z,6.80
2023-03-22T01:16:09.790Z,7.10
2023-03-22T01:18:36.716Z,7.20
2023-03-22T01:21:03.812Z,7.40
2023-03-22T01:23:30.832Z,7.50
2023-03-22T01:25:57.631Z,7.30
2023-03-22T01:28:26.945Z,7.40
2023-03-22T01:30:54.713Z,7.60
2023-03-22T01:33:21.909Z,7.60
2023-03-22T01:35:48.731Z,7.90
2023-03-22T01:38:15.543Z,8.30
2023-03-22T01:40:42.630Z,8.30
2023-03-22T01:43:15.021Z,8.40
2023-03-22T01:45:48.214Z,8.50
2023-03-22T01:48:21.876Z,8.40
2023-03-22T01:51:12.594Z,8.90
2023-03-22T01:53:50.385Z,9.10
2023-03-22T01:56:21.046Z,9.00
2023-03-22T01:58:49.955Z,9.10
2023-03-22T02:01:17.351Z,9.20
2023-03-22T02:03:50.274Z,9.20
2023-03-22T02:06:18.803Z,9.10
2023-03-22T02:08:45.809Z,9.50
2023-03-22T02:11:43.706Z,9.60
2023-03-22T02:14:31.117Z,9.40
2023-03-22T02:17:33.051Z,9.60
2023-03-22T02:20:29.382Z,9.30
2023-03-22T02:23:21.114Z,9.60
2023-03-22T02:26:13.993Z,10.10
2023-03-22T02:28:48.553Z,10.30
2023-03-22T02:31:46.374Z,10.90
2023-03-22T02:34:49.958Z,10.80
2023-03-22T02:37:54.662Z,10.50
2023-03-22T02:40:57.622Z,10.20
2023-03-22T02:43:30.803Z,10.40
2023-03-22T02:46:05.587Z,11.30
2023-03-22T02:48:53.999Z,11.70
2023-03-22T02:51:36.978Z,11.70
2023-03-22T02:54:26.314Z,11.50
2023-03-22T02:57:23.269Z,11.10
2023-03-22T02:59:52.327Z,11.20
2023-03-22T03:02:20.117Z,11.40
2023-03-22T03:04:49.722Z,11.40
2023-03-22T03:07:21.952Z,11.50
2023-03-22T03:09:50.295Z,11.70
2023-03-22T03:12:23.359Z,11.60
2023-03-22T03:14:50.713Z,11.60
2023-03-22T03:17:37.961Z,12.00
2023-03-22T03:20:46.598Z,12.10
2023-03-22T03:23:31.253Z,12.00
2023-03-22T03:26:12.465Z,12.20
2023-03-22T03:28:49.831Z,12.30
2023-03-22T03:31:34.904Z,12.30
2023-03-22T03:34:20.280Z,12.40
2023-03-22T03:37:08.232Z,12.20
2023-03-22T03:39:52.843Z,13.20
2023-03-22T03:42:21.678Z,12.60
2023-03-22T03:44:49.003Z,12.60
2023-03-22T03:47:16.814Z,12.70
2023-03-22T03:49:43.591Z,13.10
2023-03-22T03:52:10.491Z,13.00
2023-03-22T03:54:37.259Z,12.90
2023-03-22T03:57:04.284Z,13.30
2023-03-22T03:59:31.062Z,13.20
2023-03-22T04:01:57.855Z,13.50
2023-03-22T04:04:28.229Z,13.60
2023-03-22T04:07:00.346Z,13.60
2023-03-22T04:09:29.457Z,13.70
2023-03-22T04:11:57.276Z,13.80
2023-03-22T04:14:25.047Z,13.50
2023-03-22T04:16:52.543Z,13.50
2023-03-22T04:19:20.247Z,13.50
2023-03-22T04:21:47.788Z,13.50
2023-03-22T04:24:15.075Z,13.50
2023-03-22T04:26:42.338Z,13.70
2023-03-22T04:29:09.368Z,13.70
2023-03-22T04:31:36.948Z,13.70
2023-03-22T04:34:06.564Z,13.50
2023-03-22T04:36:39.458Z,13.40
2023-03-22T04:39:09.012Z,13.40
2023-03-22T04:41:37.113Z,13.40
2023-03-22T04:44:05.375Z,13.60
2023-03-22T04:46:34.999Z,13.70
2023-03-22T04:49:01.897Z,13.70
2023-03-22T04:51:29.059Z,13.80
2023-03-22T04:53:55.907Z,13.50
2023-03-22T04:56:22.786Z,13.80
2023-03-22T04:58:49.554Z,13.80
2023-03-22T05:01:18.402Z,14.00
2023-03-22T05:03:47.392Z,14.10
2023-03-22T05:06:14.644Z,14.20
2023-03-22T05:08:41.767Z,14.20
2023-03-22T05:11:16.982Z,14.30
2023-03-22T05:13:43.845Z,14.00
2023-03-22T05:16:11.401Z,14.10
2023-03-22T05:18:45.402Z,14.10
2023-03-22T05:21:17.907Z,14.00
2023-03-22T05:23:45.737Z,14.10
2023-03-22T05:26:15.775Z,14.10
2023-03-22T05:28:44.065Z,14.40
2023-03-22T05:31:11.857Z,14.40
2023-03-22T05:33:39.222Z,14.20
2023-03-22T05:36:06.728Z,14.30
2023-03-22T05:38:33.688Z,14.50
2023-03-22T05:41:00.729Z,14.50
2023-03-22T05:43:27.598Z,14.60
2023-03-22T05:45:54.452Z,14.60
2023-03-22T05:48:21.379Z,14.50
2023-03-22T05:50:48.230Z,14.40
2023-03-22T05:53:15.415Z,14.40
2023-03-22T05:55:42.418Z,14.40
2023-03-22T05:58:10.908Z,14.30
2023-03-22T06:00:38.452Z,14.30
2023-03-22T06:03:05.504Z,14.20
2023-03-22T06:05:32.867Z,14.30
2023-03-22T06:07:59.910Z,14.40
2023-03-22T06:10:28.153Z,14.40
2023-03-22T06:12:55.451Z,14.40
2023-03-22T06:15:22.473Z,14.40
2023-03-22T06:17:49.428Z,14.50
2023-03-22T06:20:16.253Z,14.60
2023-03-22T06:22:43.138Z,14.30
2023-03-22T06:25:10.969Z,14.30
2023-03-22T06:27:37.846Z,14.10
2023-03-22T06:30:05.475Z,14.20
2023-03-22T06:32:32.299Z,14.30
2023-03-22T06:34:59.121Z,14.40
2023-03-22T06:37:26.149Z,14.40
2023-03-22T06:39:53.064Z,14.50
2023-03-22T06:42:20.154Z,14.60
2023-03-22T06:44:47.104Z,15.30
2023-03-22T06:47:14.055Z,15.50
2023-03-22T06:49:41.104Z,16.90
2023-03-22T06:52:08.025Z,19.30
2023-03-22T06:54:35.007Z,20.00
2023-03-22T06:57:01.827Z,20.40
2023-03-22T06:59:28.670Z,20.80
2023-03-22T07:01:55.447Z,19.40
2023-03-22T07:04:22.258Z,16.70
2023-03-22T07:06:49.127Z,15.20
2023-03-22T07:09:16.290Z,13.80
2023-03-22T07:11:43.192Z,12.20
2023-03-22T07:14:09.924Z,10.80
2023-03-22T07:16:36.756Z,8.80
2023-03-22T07:19:03.857Z,7.20
2023-03-22T07:21:30.890Z,5.40
2023-03-22T07:23:58.203Z,3.50
2023-03-22T07:26:26.402Z,1.00
2023-03-22T07:28:53.834Z,1.00
2023-03-22T07:31:20.679Z,1.00
2023-03-22T07:33:48.328Z,1.00
2023-03-22T07:36:15.553Z,1.00
2023-03-22T07:38:42.423Z,1.00
2023-03-22T07:41:09.439Z,1.00
2023-03-22T07:43:50.701Z,1.00
2023-03-22T07:46:18.011Z,1.00
2023-03-22T07:48:45.274Z,1.00
2023-03-22T07:51:12.335Z,1.00
2023-03-22T07:53:39.180Z,1.00
2023-03-22T07:56:06.863Z,1.00
2023-03-22T07:58:33.699Z,1.00
2023-03-22T08:01:05.562Z,1.00
2023-03-22T08:03:32.652Z,1.00
2023-03-22T08:06:02.923Z,1.00
2023-03-22T08:08:29.722Z,1.00
2023-03-22T08:10:56.591Z,1.00
2023-03-22T08:13:23.724Z,1.00
2023-03-22T08:15:50.660Z,1.00
2023-03-22T08:18:17.439Z,1.00
2023-03-22T08:20:45.698Z,1.00
2023-03-22T08:23:16.062Z,1.00
2023-03-22T08:25:43.392Z,1.00
2023-03-22T08:28:10.739Z,1.00
2023-03-22T08:30:38.432Z,1.00
2023-03-22T08:33:06.556Z,1.00
2023-03-22T08:35:33.645Z,1.00
2023-03-22T08:38:01.255Z,1.00
2023-03-22T08:40:28.132Z,1.00
2023-03-22T08:42:55.130Z,1.00
2023-03-22T08:45:22.510Z,1.00
2023-03-22T08:47:49.469Z,1.00
2023-03-22T08:50:16.327Z,1.00
2023-03-22T08:52:43.093Z,1.00
2023-03-22T08:55:10.239Z,1.00
2023-03-22T08:57:38.875Z,1.00
2023-03-22T09:00:06.842Z,1.00
2023-03-22T09:02:33.734Z,1.00
2023-03-22T09:05:00.488Z,1.00
2023-03-22T09:07:28.098Z,1.00
2023-03-22T09:09:55.088Z,1.00
2023-03-22T09:12:21.937Z,1.00
2023-03-22T09:14:50.008Z,1.00
2023-03-22T09:17:20.161Z,1.00
2023-03-22T09:19:48.097Z,1.00
2023-03-22T09:22:15.420Z,1.00
2023-03-22T09:24:42.336Z,1.00
2023-03-22T09:27:09.242Z,1.00
2023-03-22T09:29:36.085Z,1.00
2023-03-22T09:32:02.983Z,1.00
2023-03-22T09:34:29.752Z,1.00
2023-03-22T09:36:58.653Z,1.00
2023-03-22T09:39:25.629Z,1.00
2023-03-22T09:41:57.386Z,1.00
2023-03-22T09:44:31.668Z,1.00
2023-03-22T09:47:00.487Z,1.00
2023-03-22T09:49:43.604Z,1.00
2023-03-22T09:52:18.038Z,1.00
2023-03-22T09:54:47.164Z,1.00
2023-03-22T09:57:27.463Z,1.00
2023-03-22T10:00:05.939Z,1.00
2023-03-22T10:02:45.962Z,1.00
2023-03-22T10:05:42.035Z,1.00
2023-03-22T10:08:15.315Z,1.00
2023-03-22T10:10:43.148Z,1.00
2023-03-22T10:13:16.570Z,1.00
2023-03-22T10:15:50.497Z,1.00
2023-03-22T10:18:23.140Z,1.00
2023-03-22T10:21:00.590Z,1.00
2023-03-22T10:23:35.704Z,1.00
2023-03-22T10:26:03.924Z,1.00
2023-03-22T10:28:44.018Z,1.00
2023-03-22T10:31:17.530Z,1.00
2023-03-22T10:33:53.345Z,1.00
2023-03-22T10:36:23.849Z,1.00
2023-03-22T10:38:56.656Z,1.00
2023-03-22T10:41:25.718Z,1.00
2023-03-22T10:43:58.402Z,1.00
2023-03-22T10:46:28.938Z,1.00
2023-03-22T10:48:59.687Z,1.00
2023-03-22T10:51:34.324Z,1.00
2023-03-22T10:54:02.528Z,1.00
2023-03-22T10:56:29.270Z,1.00
2023-03-22T10:58:59.546Z,1.00
2023-03-22T11:01:32.359Z,1.00
2023-03-22T11:04:12.444Z,1.00
2023-03-22T11:06:48.999Z,1.00
2023-03-22T11:09:25.316Z,1.00
2023-03-22T11:11:54.368Z,1.00
2023-03-22T11:14:41.402Z,1.00
2023-03-22T11:17:19.716Z,1.00
2023-03-22T11:19:58.391Z,1.00
2023-03-22T11:22:42.608Z,1.00
2023-03-22T11:25:33.912Z,1.00
2023-03-22T11:28:04.249Z,1.00
2023-03-22T11:30:32.600Z,1.00
2023-03-22T11:33:08.613Z,1.00
2023-03-22T11:35:39.636Z,1.00
2023-03-22T11:38:07.613Z,1.00
2023-03-22T11:40:51.969Z,1.00
2023-03-22T11:43:26.150Z,1.00
2023-03-22T11:45:58.091Z,1.00
2023-03-22T11:48:28.919Z,1.00
2023-03-22T11:51:19.256Z,1.00
2023-03-22T11:53:48.483Z,1.00
2023-03-22T11:56:25.905Z,1.00
2023-03-22T11:59:14.465Z,1.00
2023-03-22T12:01:58.621Z,1.00
2023-03-22T12:04:29.620Z,1.00
2023-03-22T12:06:59.737Z,1.00
2023-03-22T12:09:59.156Z,1.00
2023-03-22T12:12:31.303Z,1.00
2023-03-22T12:15:03.864Z,1.00
2023-03-22T12:17:42.181Z,1.00
2023-03-22T12:20:22.015Z,1.00
2023-03-22T12:22:53.380Z,1.00
2023-03-22T12:25:41.297Z,1.00
2023-03-22T12:28:17.326Z,1.00
2023-03-22T12:30:48.009Z,1.00
2023-03-22T12:33:24.733Z,1.00
2023-03-22T12:35:56.212Z,1.00
2023-03-22T12:38:42.559Z,1.00
2023-03-22T12:41:35.773Z,1.00
2023-03-22T12:44:21.743Z,1.00
2023-03-22T12:47:20.554Z,1.00
2023-03-22T12:49:52.645Z,1.00
2023-03-22T12:52:45.514Z,1.00
2023-03-22T12:55:23.309Z,1.00
2023-03-22T12:57:54.639Z,1.00
2023-03-22T13:00:36.941Z,1.00
2023-03-22T13:03:16.331Z,1.00
2023-03-22T13:05:58.661Z,1.00
2023-03-22T13:08:25.500Z,1.00
2023-03-22T13:11:05.663Z,1.00
2023-03-22T13:13:44.058Z,1.00
2023-03-22T13:16:11.092Z,1.00
2023-03-22T13:18:38.305Z,1.00
2023-03-22T13:21:27.457Z,1.00
2023-03-22T13:24:10.091Z,1.00
2023-03-22T13:26:55.060Z,1.00
2023-03-22T13:29:38.899Z,1.00
2023-03-22T13:32:24.640Z,1.00
2023-03-22T13:34:53.368Z,1.00
2023-03-22T13:37:35.129Z,1.00
2023-03-22T13:40:13.137Z,1.00
2023-03-22T13:42:41.958Z,1.00
2023-03-22T13:45:44.364Z,1.00
2023-03-22T13:48:29.148Z,1.00
2023-03-22T13:50:58.279Z,1.00
2023-03-22T13:53:30.549Z,1.00
2023-03-22T13:55:58.811Z,1.00
2023-03-22T13:58:37.742Z,1.00
2023-03-22T14:01:35.185Z,1.00
2023-03-22T14:04:10.195Z,1.00
2023-03-22T14:07:08.674Z,1.00
2023-03-22T14:09:59.253Z,1.00
2023-03-22T14:12:36.563Z,1.00
2023-03-22T14:15:06.718Z,1.00
2023-03-22T14:17:45.248Z,1.00
2023-03-22T14:20:22.289Z,1.00
